This is the latest recevied weather packets stored in our database for station/object SQ8AQL-16. If no packets are shown the sender has not sent any weather packets the latest 10 day(s).
| Time | Temp. | Humidity | Pressure | Rain* | Wind** | Luminosity | Snow |
|---|---|---|---|---|---|---|---|
| 1777680840 | 8.33° C | 70% | 1027 hPa | - | - | - | - |
| 1777679939 | 8.33° C | 70% | 1027.1 hPa | - | - | - | - |
| 1777679037 | 8.89° C | 68% | 1027.1 hPa | - | - | - | - |
| 1777678136 | 9.44° C | 67% | 1027.1 hPa | - | - | - | - |
| 1777677235 | 9.44° C | 65% | 1027 hPa | - | - | - | - |
| 1777676334 | 9.44° C | 65% | 1027 hPa | - | - | - | - |
| 1777675433 | 10° C | 63% | 1026.9 hPa | - | - | - | - |
| 1777674532 | 10° C | 63% | 1026.9 hPa | - | - | - | - |
| 1777673631 | 11.11° C | 59% | 1026.8 hPa | - | - | - | - |
| 1777672730 | 11.11° C | 59% | 1026.8 hPa | - | - | - | - |
| 1777671830 | 11.67° C | 57% | 1026.8 hPa | - | - | - | - |
| 1777670929 | 11.67° C | 57% | 1026.7 hPa | - | - | - | - |
| 1777670028 | 11.67° C | 57% | 1026.6 hPa | - | - | - | - |
| 1777669127 | 12.78° C | 54% | 1026.5 hPa | - | - | - | - |
| 1777668226 | 12.78° C | 54% | 1026.5 hPa | - | - | - | - |
| 1777667325 | 12.78° C | 54% | 1026.4 hPa | - | - | - | - |
| 1777666424 | 12.78° C | 54% | 1026.3 hPa | - | - | - | - |
| 1777665523 | 14.44° C | 49% | 1026.3 hPa | - | - | - | - |
| 1777664623 | 14.44° C | 49% | 1026.2 hPa | - | - | - | - |
| 1777663721 | 15° C | 48% | 1026.1 hPa | - | - | - | - |
| 1777662820 | 15.56° C | 46% | 1026 hPa | - | - | - | - |
| 1777661919 | 16.67° C | 42% | 1026 hPa | - | - | - | - |
| 1777661019 | 16.67° C | 42% | 1025.9 hPa | - | - | - | - |
| 1777660118 | 16.67° C | 42% | 1025.8 hPa | - | - | - | - |
| 1777659216 | 17.22° C | 41% | 1025.7 hPa | - | - | - | - |
* Rain since midnight (hover to see other rain measurements)
** Current wind speed in m/s (hover to see current wind gust speed)